Latest Weather Observations for Cape Bruny AWS

IDT60801

Issued at 10:02 am EST Friday 29 July 2016 (issued every 30 minutes, with the page automatically refreshed every 10 minutes)

About weather observations | Map of weather stations | Latest weather observations for TAS | Other Formats
Station Details ID: 094198 Name: CAPE BRUNY (CAPE BRUNY) Lat: -43.49 Lon: 147.14 Height: 59.7 m
Data from the previous 72 hours. | See also: Recent months at Cape Bruny AWS
Date/Time
EST
Temp
°C
App
Temp
°C
Dew
Point
°C
Rel
Hum
%
Delta-T
°C
Wind Press
QNH
hPa
Press
MSL
hPa
Rain since
9am
mm
Dir  Spd
km/h
Gust
km/h
Spd
kts
Gust
kts
29/10:00am 11.3 3.4 4.5 63 3.1 NW 35 48 19 26 1004.6 1004.7 0.0
29/09:30am 10.6 6.2 6.4 75 2.0 WNW 19 39 10 21 1005.3 1005.4 0.0
29/09:00am 10.8 6.0 5.8 71 2.3 NW 20 32 11 17 1005.4 1005.5 0.0
29/08:39am 11.0 4.3 5.7 70 2.5 WNW 30 48 16 26 1005.1 1005.2 0.0
29/08:30am 11.2 3.9 5.5 68 2.6 WNW 33 48 18 26 1005.1 1005.2 0.0
29/08:14am 11.1 3.8 5.4 68 2.6 NW 33 52 18 28 1005.1 1005.2 0.0
29/08:00am 11.0 3.8 6.0 71 2.3 WNW 33 46 18 25 1005.1 1005.2 0.0
29/07:30am 10.9 3.1 5.0 67 2.7 NW 35 52 19 28 1005.2 1005.3 0.0
29/07:25am 10.9 3.5 5.0 67 2.7 NW 33 52 18 28 1005.2 1005.3 0.0
29/07:00am 10.7 3.6 5.3 69 2.5 WNW 32 46 17 25 1005.7 1005.8 0.0
29/06:30am 10.6 4.7 5.6 71 2.3 NW 26 32 14 17 1005.8 1005.9 0.0
29/06:00am 10.7 3.6 5.5 70 2.4 NW 32 44 17 24 1005.8 1005.9 0.0
29/05:30am 10.8 4.4 5.3 69 2.5 NW 28 39 15 21 1005.7 1005.8 0.0
29/05:00am 10.6 3.8 5.2 69 2.5 NW 30 46 16 25 1005.4 1005.5 0.0
29/04:53am 10.4 4.0 5.0 69 2.5 NW 28 41 15 22 1005.6 1005.7 0.0
29/04:30am 10.9 2.8 5.4 69 2.5 WNW 37 57 20 31 1005.9 1006.0 0.0
29/04:25am 10.9 3.2 5.4 69 2.5 WNW 35 57 19 31 1005.7 1005.8 0.0
29/04:00am 10.5 2.8 5.5 71 2.3 WNW 35 50 19 27 1006.1 1006.2 0.0
29/03:58am 10.5 2.8 5.5 71 2.3 WNW 35 54 19 29 1006.1 1006.2 0.0
29/03:30am 10.7 5.0 5.0 68 2.6 WNW 24 37 13 20 1006.3 1006.4 0.0
29/03:00am 10.7 4.6 4.6 66 2.8 NW 26 39 14 21 1006.4 1006.5 0.0
29/02:49am 10.8 3.3 4.7 66 2.8 NW 33 54 18 29 1006.4 1006.5 0.0
29/02:30am 10.7 4.2 4.6 66 2.8 NW 28 39 15 21 1006.6 1006.7 0.0
29/02:00am 10.8 3.4 4.0 63 3.0 NW 32 44 17 24 1006.9 1007.0 0.0
29/01:48am 10.7 4.1 4.0 63 3.0 WNW 28 46 15 25 1006.8 1006.9 0.0
29/01:30am 10.4 4.3 4.8 68 2.5 WNW 26 35 14 19 1007.2 1007.3 0.0
29/01:01am 10.5 2.8 5.3 70 2.4 WNW 35 54 19 29 1007.3 1007.4 0.0
29/01:00am 10.5 2.4 5.1 69 2.5 WNW 37 54 20 29 1007.3 1007.4 0.0
29/12:43am 10.7 4.5 4.4 65 2.8 WNW 26 46 14 25 1007.5 1007.6 0.0
29/12:39am 10.6 5.2 4.7 67 2.7 NW 22 46 12 25 1007.4 1007.5 0.0
29/12:30am 10.1 5.2 4.3 67 2.6 NW 19 35 10 19 1007.8 1007.9 0.0
29/12:24am 10.3 3.3 4.2 66 2.7 WNW 30 43 16 23 1007.6 1007.7 0.0
29/12:00am 10.6 2.4 4.9 68 2.6 WNW 37 50 20 27 1007.8 1007.9 0.0
 
Date/Time
EST
Temp
°C
App
Temp
°C
Dew
Point
°C
Rel
Hum
%
Delta-T
°C
Wind Press
QNH
hPa
Press
MSL
hPa
Rain since
9am
mm
Dir  Spd
km/h
Gust
km/h
Spd
kts
Gust
kts
28/11:55pm 10.7 4.2 4.6 66 2.8 WNW 28 48 15 26 1007.9 1008.0 0.0
28/11:30pm 10.3 3.7 4.0 65 2.8 NW 28 39 15 21 1008.3 1008.4 0.0
28/11:00pm 10.6 3.4 4.9 68 2.6 WNW 32 48 17 26 1008.5 1008.6 0.0
28/10:52pm 10.5 3.9 4.4 66 2.7 WNW 28 48 15 26 1008.5 1008.6 0.0
28/10:30pm 10.4 4.7 5.0 69 2.5 WNW 24 35 13 19 1008.7 1008.8 0.0
28/10:00pm 10.5 3.2 4.6 67 2.7 NW 32 52 17 28 1008.8 1008.9 0.0
28/09:59pm 10.6 3.1 4.7 67 2.7 WNW 33 52 18 28 1008.9 1009.0 0.0
28/09:30pm 10.3 2.2 5.3 71 2.3 WNW 37 50 20 27 1009.0 1009.1 0.0
28/09:00pm 10.5 2.7 5.1 69 2.5 WNW 35 54 19 29 1008.9 1009.0 0.0
28/08:56pm 10.6 2.8 4.9 68 2.6 WNW 35 54 19 29 1008.9 1009.0 0.0
28/08:30pm 10.5 1.3 5.5 71 2.3 WNW 43 52 23 28 1009.0 1009.1 0.0
28/08:00pm 10.5 2.1 5.5 71 2.3 WNW 39 50 21 27 1008.9 1009.0 0.0
28/07:30pm 10.7 3.1 5.9 72 2.2 WNW 35 50 19 27 1009.2 1009.3 0.0
28/07:00pm 10.9 3.3 5.7 70 2.4 WNW 35 48 19 26 1009.0 1009.1 0.0
28/06:30pm 10.7 2.2 5.3 69 2.5 NW 39 50 21 27 1008.8 1008.9 0.0
28/06:14pm 10.9 3.6 5.4 69 2.5 WNW 33 54 18 29 1008.7 1008.8 0.0
28/06:00pm 10.9 4.1 5.2 68 2.6 WNW 30 43 16 23 1008.4 1008.5 0.0
28/05:30pm 10.8 5.2 5.3 69 2.5 WNW 24 37 13 20 1008.3 1008.4 0.0
28/05:00pm 11.0 5.5 5.7 70 2.5 WNW 24 37 13 20 1007.9 1008.0 0.0
28/04:30pm 11.1 3.9 6.0 71 2.4 W 33 43 18 23 1007.5 1007.6 0.0
28/04:00pm 11.6 3.3 6.1 69 2.6 W 39 50 21 27 1006.8 1006.9 0.0
28/03:30pm 12.1 2.4 5.9 66 2.9 W 46 54 25 29 1006.6 1006.7 0.0
28/03:00pm 12.3 3.7 6.4 67 2.8 W 41 50 22 27 1006.6 1006.7 0.0
28/02:30pm 12.4 3.8 6.5 67 2.8 WNW 41 50 22 27 1006.2 1006.3 0.0
28/02:00pm 12.7 4.9 6.5 66 3.0 W 37 52 20 28 1006.0 1006.1 0.0
28/01:36pm 12.4 5.1 7.3 71 2.5 W 35 54 19 29 1005.9 1006.0 0.0
28/01:30pm 12.7 3.5 6.5 66 3.0 W 44 57 24 31 1006.0 1006.1 0.0
28/01:13pm 12.6 5.2 6.9 68 2.7 W 35 54 19 29 1005.8 1005.9 0.0
28/01:00pm 12.4 4.2 6.7 68 2.7 W 39 56 21 30 1005.8 1005.9 0.0
28/12:51pm 12.3 1.2 6.4 67 2.8 W 54 72 29 39 1005.9 1006.0 0.0
28/12:46pm 12.5 2.2 6.5 67 2.9 W 50 72 27 39 1005.7 1005.8 0.0
28/12:44pm 12.4 3.2 6.5 67 2.8 W 44 65 24 35 1005.8 1005.9 0.0
28/12:30pm 12.0 4.4 7.7 75 2.1 W 37 52 20 28 1005.9 1006.0 0.0
28/12:00pm 12.3 4.6 7.2 71 2.5 W 37 48 20 26 1006.4 1006.5 0.0
28/11:37am 12.3 4.4 7.8 74 2.2 W 39 59 21 32 1006.3 1006.4 0.0
28/11:30am 11.9 5.1 7.8 76 2.0 W 33 46 18 25 1006.5 1006.6 0.0
28/11:11am 11.3 4.5 7.8 79 1.7 W 33 52 18 28 1006.4 1006.5 0.0
28/11:00am 11.8 2.9 7.5 75 2.1 W 44 56 24 30 1006.4 1006.5 0.0
28/10:47am 11.1 3.9 7.8 80 1.6 W 35 54 19 29 1006.3 1006.4 0.0
28/10:30am 11.3 3.4 7.8 79 1.7 W 39 48 21 26 1006.2 1006.3 0.0
28/10:00am 10.6 3.2 8.2 85 1.2 W 37 44 20 24 1006.0 1006.1 0.0
28/09:30am 10.5 3.4 7.9 84 1.3 W 35 44 19 24 1005.7 1005.8 0.0
28/09:14am 10.8 2.5 7.7 81 1.5 W 41 59 22 32 1005.7 1005.8 0.0
28/09:00am 10.4 2.9 7.8 84 1.3 WNW 37 48 20 26 1005.3 1005.4 3.6
28/08:30am 10.0 2.1 7.8 86 1.1 WNW 39 48 21 26 1005.2 1005.3 3.6
28/08:00am 9.4 2.6 7.5 88 0.9 NW 33 46 18 25 1005.2 1005.3 3.6
28/07:30am 8.6 3.2 6.4 86 1.0 NNW 24 30 13 16 1005.1 1005.2 3.0
28/07:00am 8.6 3.2 6.2 85 1.1 NW 24 33 13 18 1004.9 1005.0 3.0
28/06:30am 8.5 2.2 5.8 83 1.2 NW 28 35 15 19 1004.9 1005.0 2.8
28/06:00am 8.8 1.7 5.5 80 1.5 WNW 32 39 17 21 1005.2 1005.3 2.4
28/05:50am 9.1 1.1 5.5 78 1.6 WNW 37 56 20 30 1005.0 1005.1 2.2
28/05:30am 10.0 2.1 4.4 68 2.5 WNW 35 50 19 27 1004.9 1005.0 2.2
28/05:03am 10.0 3.4 4.4 68 2.5 WNW 28 46 15 25 1005.1 1005.2 2.2
28/05:00am 10.2 2.9 4.6 68 2.5 WNW 32 46 17 25 1005.1 1005.2 2.2
28/04:34am 9.9 1.7 4.9 71 2.3 WNW 37 56 20 30 1005.4 1005.5 2.2
28/04:30am 9.8 1.6 4.8 71 2.2 NW 37 54 20 29 1005.4 1005.5 2.2
28/04:26am 9.9 2.1 4.7 70 2.3 NW 35 54 19 29 1005.5 1005.6 2.2
28/04:00am 9.6 1.9 5.2 74 2.0 WNW 35 46 19 25 1005.8 1005.9 2.2
28/03:30am 9.9 2.7 5.1 72 2.2 W 32 39 17 21 1006.1 1006.2 2.2
28/03:20am 10.0 1.8 4.8 70 2.3 W 37 56 20 30 1005.9 1006.0 2.2
28/03:13am 10.0 3.1 4.4 68 2.5 WNW 30 54 16 29 1006.1 1006.2 2.2
28/03:00am 9.9 4.5 4.3 68 2.5 NW 22 32 12 17 1006.1 1006.2 2.2
28/02:50am 9.8 5.0 4.4 69 2.4 WNW 19 26 10 14 1006.2 1006.3 2.2
28/02:30am 10.7 0.8 5.0 68 2.6 W 46 65 25 35 1005.9 1006.0 2.2
28/02:03am 11.0 0.8 3.1 58 3.5 W 46 65 25 35 1005.6 1005.7 2.2
28/02:00am 10.7 1.1 4.4 65 2.8 W 44 57 24 31 1005.7 1005.8 2.2
28/01:34am 10.9 1.3 4.4 64 2.9 W 44 65 24 35 1005.4 1005.5 2.2
28/01:30am 10.8 0.7 3.8 62 3.1 W 46 59 25 32 1005.3 1005.4 2.2
28/01:18am 10.5 0.5 4.4 66 2.7 W 46 65 25 35 1005.2 1005.3 2.2
28/01:00am 10.7 0.6 3.7 62 3.1 W 46 59 25 32 1004.9 1005.0 2.2
28/12:45am 10.7 0.2 3.5 61 3.2 W 48 67 26 36 1004.8 1004.9 2.2
28/12:30am 10.6 0.8 3.2 60 3.2 W 44 57 24 31 1004.5 1004.6 2.2
28/12:14am 10.5 -0.9 2.8 59 3.3 W 52 72 28 39 1004.2 1004.3 2.2
28/12:00am 10.4 -0.9 3.2 61 3.2 W 52 65 28 35 1004.2 1004.3 2.2
 
Date/Time
EST
Temp
°C
App
Temp
°C
Dew
Point
°C
Rel
Hum
%
Delta-T
°C
Wind Press
QNH
hPa
Press
MSL
hPa
Rain since
9am
mm
Dir  Spd
km/h
Gust
km/h
Spd
kts
Gust
kts
27/11:39pm 10.4 -1.7 3.4 62 3.1 W 56 78 30 42 1003.9 1003.9 2.2
27/11:37pm 10.3 -2.3 3.8 64 2.9 W 59 78 32 42 1003.9 1003.9 2.2
27/11:30pm 10.6 -3.2 3.2 60 3.2 W 65 78 35 42 1003.6 1003.6 2.2
27/11:00pm 10.6 -2.5 3.2 60 3.2 W 61 83 33 45 1003.6 1003.6 2.2
27/10:30pm 10.3 -2.3 3.6 63 2.9 W 59 80 32 43 1003.5 1003.5 2.2
27/10:16pm 10.2 -3.0 2.6 59 3.3 W 61 80 33 43 1003.1 1003.1 2.2
27/10:00pm 10.3 -2.8 3.1 61 3.1 W 61 78 33 42 1003.2 1003.2 2.2
27/09:30pm 10.3 -3.5 3.3 62 3.1 W 65 91 35 49 1002.5 1002.5 2.2
27/09:00pm 10.4 -3.2 4.1 65 2.8 W 65 89 35 48 1002.3 1002.3 2.2
27/08:30pm 10.1 -1.9 3.6 64 2.9 W 56 76 30 41 1001.9 1001.9 2.2
27/08:00pm 9.8 -2.5 3.1 63 2.9 W 57 76 31 41 1000.9 1001.0 2.2
27/07:30pm 9.6 -3.7 3.8 67 2.5 W 63 89 34 48 1000.4 1000.5 2.2
27/07:00pm 9.5 -5.7 4.9 73 2.1 W 74 100 40 54 999.7 999.8 2.2
27/06:54pm 9.5 -4.9 5.1 74 2.0 W 70 98 38 53 999.2 999.3 2.2
27/06:30pm 9.3 -2.5 7.3 87 0.9 W 59 80 32 43 999.0 999.1 2.2
27/06:00pm 9.9 -5.3 6.8 81 1.5 W 76 104 41 56 997.6 997.7 0.8
27/05:58pm 9.8 -6.3 6.0 77 1.8 W 80 106 43 57 997.1 997.2 0.6
27/05:53pm 10.2 -7.7 5.8 74 2.0 W 89 120 48 65 996.6 996.7 0.4
27/05:46pm 10.9 -2.0 5.9 71 2.3 WNW 63 120 34 65 996.4 996.5 0.4
27/05:44pm 10.3 0.0 6.6 78 1.7 WNW 50 106 27 57 997.5 997.6 0.4
27/05:43pm 9.0 -0.7 5.6 79 1.5 NW 46 87 25 47 997.9 998.0 0.4
27/05:37pm 7.2 -1.9 3.8 79 1.5 NW 41 69 22 37 997.4 997.5 0.4
27/05:30pm 6.6 -3.2 3.4 80 1.4 NW 44 59 24 32 997.6 997.7 0.4
27/05:00pm 6.2 -3.0 3.5 83 1.1 NW 41 59 22 32 998.4 998.5 0.4
27/04:48pm 6.2 -3.1 3.2 81 1.3 NW 41 59 22 32 998.9 999.0 0.4
27/04:30pm 6.5 -3.8 2.9 78 1.5 NW 46 61 25 33 999.0 999.1 0.4
27/04:08pm 6.7 -3.6 2.8 76 1.6 NW 46 65 25 35 999.2 999.3 0.2
27/04:00pm 7.3 -2.5 2.4 71 2.0 NW 43 56 23 30 999.5 999.6 0.2
27/03:30pm 7.7 -1.1 1.3 64 2.6 WNW 37 57 20 31 999.9 1000.0 0.2
27/03:22pm 8.3 -0.4 1.9 64 2.7 WNW 37 56 20 30 999.9 1000.0 0.2
27/03:00pm 8.2 -2.0 0.7 59 3.0 WNW 44 61 24 33 999.8 999.9 0.2
27/02:38pm 7.4 -3.6 1.0 64 2.6 WNW 48 67 26 36 1000.3 1000.4 0.2
27/02:30pm 7.1 -5.9 1.0 65 2.4 WNW 59 78 32 42 1000.5 1000.6 0.2
27/02:01pm 7.5 -4.6 1.1 64 2.6 WNW 54 72 29 39 1001.0 1001.1 0.2
27/02:00pm 7.7 -4.3 1.8 66 2.4 WNW 54 70 29 38 1001.1 1001.2 0.2
27/01:42pm 7.8 -2.7 1.6 65 2.5 WNW 46 65 25 35 1001.0 1001.1 0.2
27/01:30pm 7.4 -2.7 1.3 65 2.5 WNW 44 57 24 31 1001.1 1001.2 0.2
27/01:00pm 7.4 -2.8 1.0 64 2.6 WNW 44 59 24 32 1001.4 1001.5 0.2
27/12:30pm 7.5 -0.9 1.8 67 2.3 WNW 35 46 19 25 1002.4 1002.4 0.2
27/12:00pm 7.6 -0.1 2.3 69 2.2 WNW 32 41 17 22 1002.6 1002.6 0.2
27/11:32am 7.3 -2.0 0.7 63 2.6 W 39 57 21 31 1002.8 1002.8 0.2
27/11:30am 7.2 -2.5 0.4 62 2.7 W 41 57 22 31 1002.8 1002.8 0.2
27/11:08am 8.1 -3.0 0.3 58 3.1 W 48 67 26 36 1003.0 1003.0 0.2
27/11:00am 8.0 -2.9 1.6 64 2.6 W 48 61 26 33 1003.1 1003.1 0.2
27/10:58am 7.8 -3.6 0.5 60 2.9 W 50 61 27 33 1003.0 1003.0 0.2
27/10:41am 7.1 -0.8 2.2 71 2.0 WNW 33 52 18 28 1003.3 1003.3 0.2
27/10:30am 6.2 -2.9 1.9 74 1.7 W 39 46 21 25 1003.3 1003.3 0.2
27/10:17am 5.3 -4.0 3.2 86 0.9 W 41 59 22 32 1003.3 1003.3 0.2
27/10:00am 5.4 -4.5 2.9 84 1.0 WSW 44 56 24 30 1003.3 1003.3 0.2
27/09:44am 5.4 -4.1 1.7 77 1.5 W 41 59 22 32 1003.0 1003.0 0.2
27/09:30am 6.6 -2.1 2.1 73 1.8 W 37 46 20 25 1002.4 1002.4 0.0
27/09:00am 6.6 -3.9 1.3 69 2.1 W 46 67 25 36 1002.3 1002.3 9.8
27/08:59am 6.8 -3.2 1.9 71 2.0 W 44 65 24 35 1002.3 1002.3 9.8
27/08:30am 5.7 -2.2 2.4 79 1.3 WNW 33 46 18 25 1002.1 1002.1 9.8
27/08:00am 5.4 -4.8 1.1 74 1.7 W 44 59 24 32 1001.4 1001.5 9.8
27/07:30am 5.2 -6.4 1.9 79 1.3 W 52 70 28 38 1000.7 1000.8 9.8
27/07:15am 5.9 -6.0 2.0 76 1.6 W 54 83 29 45 1000.4 1000.5 9.8
27/07:00am 5.7 -5.6 1.2 73 1.8 W 50 57 27 31 1000.4 1000.5 9.8
27/06:30am 6.1 -3.9 1.2 71 2.0 W 43 54 23 29 999.8 999.9 9.8
27/06:00am 5.7 -5.4 2.7 81 1.2 WSW 50 72 27 39 999.0 999.1 9.8
27/05:31am 4.8 -5.1 1.8 81 1.2 WSW 43 67 23 36 998.7 998.8 9.6
27/05:30am 4.9 -5.0 1.7 80 1.3 WSW 43 67 23 36 998.7 998.8 9.6
27/05:28am 5.3 -4.2 1.6 77 1.5 W 41 67 22 36 998.8 998.9 9.4
27/05:00am 5.6 -4.4 2.3 79 1.4 W 44 57 24 31 997.7 997.8 9.2
27/04:30am 6.0 -4.4 2.1 76 1.6 W 46 57 25 31 997.2 997.3 9.2
27/04:04am 5.8 -3.0 3.5 85 1.0 WSW 39 59 21 32 996.8 996.9 9.2
27/04:00am 5.7 -2.7 3.7 87 0.9 WSW 37 48 20 26 996.7 996.8 9.2
27/03:46am 5.2 -4.1 3.2 87 0.8 W 41 70 22 38 996.5 996.6 9.0
27/03:30am 5.7 -3.8 3.7 87 0.8 W 43 56 23 30 996.1 996.2 8.8
27/03:00am 5.3 -4.2 4.0 91 0.6 WSW 43 61 23 33 996.0 996.1 7.8
27/02:30am 4.9 -4.7 3.4 90 0.6 WSW 43 63 23 34 995.6 995.7 6.6
27/02:25am 5.2 -4.3 3.7 90 0.6 WSW 43 63 23 34 995.4 995.5 6.2
27/02:00am 5.3 -4.3 3.6 89 0.7 WSW 43 57 23 31 994.6 994.7 5.0
27/01:56am 5.5 -4.6 3.8 89 0.7 W 46 57 25 31 994.3 994.4 4.8
27/01:30am 6.3 -4.8 4.5 88 0.8 WNW 52 65 28 35 993.2 993.3 3.0
27/01:15am 6.7 -1.6 4.2 84 1.1 WNW 37 57 20 31 992.8 992.9 2.2
27/01:00am 7.1 -0.4 3.2 76 1.7 NW 32 41 17 22 992.0 992.1 1.8
27/12:34am 7.7 0.0 2.4 69 2.2 NW 32 50 17 27 992.4 992.5 1.8
27/12:30am 7.7 -0.2 2.2 68 2.3 NW 33 50 18 27 992.0 992.1 1.8
27/12:15am 7.6 -0.1 2.5 70 2.1 NW 32 48 17 26 992.3 992.4 1.8
27/12:00am 5.8 0.6 2.3 78 1.4 N 19 26 10 14 992.4 992.5 1.8
 
Date/Time
EST
Temp
°C
App
Temp
°C
Dew
Point
°C
Rel
Hum
%
Delta-T
°C
Wind Press
QNH
hPa
Press
MSL
hPa
Rain since
9am
mm
Dir  Spd
km/h
Gust
km/h
Spd
kts
Gust
kts
26/11:30pm 6.1 0.7 2.7 79 1.4 N 20 37 11 20 993.1 993.2 1.8
26/11:00pm 5.5 -0.3 2.3 80 1.3 N 22 35 12 19 992.8 992.9 1.8
26/10:30pm 5.4 -1.2 1.9 78 1.4 NNE 26 41 14 22 993.3 993.4 1.8
26/10:00pm 5.6 -0.6 2.1 78 1.4 NNE 24 37 13 20 994.4 994.5 1.8
26/09:30pm 5.5 -0.7 2.0 78 1.4 N 24 35 13 19 994.9 995.0 1.8
26/09:00pm 5.2 -1.4 1.9 79 1.3 NNW 26 39 14 21 995.3 995.4 1.8
26/08:30pm 5.2 -1.5 1.7 78 1.4 NNW 26 37 14 20 995.6 995.7 1.8
26/08:00pm 5.2 -1.1 1.7 78 1.4 N 24 35 13 19 996.1 996.2 1.8
26/07:30pm 5.1 -1.6 1.4 77 1.5 NNW 26 37 14 20 996.4 996.5 1.8
26/07:00pm 5.2 -1.8 1.7 78 1.4 NW 28 43 15 23 996.4 996.5 1.8
26/06:30pm 4.9 -1.4 1.7 80 1.3 NNW 24 37 13 20 996.7 996.8 1.8
26/06:00pm 5.0 -0.9 1.5 78 1.4 NNW 22 32 12 17 997.3 997.4 1.8
26/05:30pm 5.0 -0.9 1.5 78 1.4 NW 22 35 12 19 997.1 997.2 1.8
26/05:00pm 6.5 -4.0 1.6 71 2.0 WNW 46 67 25 36 996.7 996.8 1.8
26/04:30pm 6.1 -1.9 1.4 72 1.9 NW 33 52 18 28 997.0 997.1 1.8
26/04:00pm 6.5 -1.3 1.4 70 2.1 NW 32 44 17 24 997.0 997.1 1.8
26/03:30pm 6.5 -0.4 2.6 76 1.6 WNW 28 39 15 21 997.2 997.3 1.8
26/03:01pm 6.5 -0.5 2.2 74 1.8 WNW 28 56 15 30 996.8 996.9 1.6
26/03:00pm 6.7 0.2 2.4 74 1.8 WNW 26 41 14 22 996.9 997.0 1.6
26/02:30pm 6.5 -1.2 2.2 74 1.8 NW 32 44 17 24 996.9 997.0 1.6
26/02:00pm 6.2 -1.9 3.0 80 1.3 WNW 35 46 19 25 996.4 996.5 1.6
26/01:37pm 6.6 -3.1 3.0 78 1.5 W 43 65 23 35 996.3 996.4 1.4
26/01:30pm 7.7 -2.0 4.1 78 1.6 WNW 44 57 24 31 996.2 996.3 1.4
26/01:02pm 7.6 -4.6 3.6 76 1.7 WNW 57 76 31 41 995.7 995.8 1.4
26/01:00pm 7.5 -5.2 3.2 74 1.8 W 59 76 32 41 995.6 995.7 1.4
26/12:31pm 6.6 -5.1 3.2 79 1.4 W 54 72 29 39 995.5 995.6 1.4
26/12:30pm 6.5 -5.6 3.3 80 1.3 W 56 72 30 39 995.6 995.7 1.4
26/12:28pm 6.6 -5.1 3.6 81 1.3 W 54 72 29 39 995.6 995.7 1.4
26/12:00pm 6.8 -2.3 3.9 82 1.3 WNW 41 52 22 28 996.0 996.1 1.2
26/11:30am 5.6 -4.0 3.4 86 0.9 WNW 43 61 23 33 996.2 996.3 1.0
26/11:02am 6.4 -5.0 2.9 78 1.5 WNW 52 70 28 38 995.9 996.0 0.6
26/11:00am 6.5 -4.5 2.8 77 1.6 WNW 50 65 27 35 995.9 996.0 0.6
26/10:33am 6.9 -1.8 1.8 70 2.1 WNW 37 56 20 30 995.2 995.3 0.6
26/10:30am 6.8 -1.9 2.1 72 1.9 WNW 37 50 20 27 995.3 995.4 0.6

Other Formats:

Comma delimited format used in spreadsheet applications
http://www.bom.gov.au/fwo/IDT60801/IDT60801.95967.axf

JavaScript Object Notation format (JSON) in row-major order
http://www.bom.gov.au/fwo/IDT60801/IDT60801.95967.json